Time;durP1;ratioP1;P1;durP2;ratioP2;P2;SDS_P1;SDS_P2;PMS_P1;PMS_P2;Temp;Humidity;BMP_temperature;BMP_pressure;BME280_temperature;BME280_humidity;BME280_pressure;Samples;Min_cycle;Max_cycle;Signal;HPM_P1;HPM_P2
2022/06/14 00:01:32;;;;;;;3.60;1.75;;;;;;;27.57;23.73;101371.41;5091047;28;20066;-57
2022/06/14 00:03:59;;;;;;;2.95;1.00;;;;;;;27.49;23.89;101369.38;5090094;28;20037;-57
2022/06/14 00:06:29;;;;;;;4.07;1.30;;;;;;;27.25;24.35;101369.56;5081664;28;20427;-57
2022/06/14 00:08:56;;;;;;;3.70;1.50;;;;;;;27.28;23.96;101363.47;5089707;28;20052;-57
2022/06/14 00:11:33;;;;;;;3.80;1.30;;;;;;;27.00;24.62;101373.63;5082775;28;20053;-57
2022/06/14 00:14:02;;;;;;;4.80;1.50;;;;;;;27.16;25.08;101370.63;5093033;28;20499;-57
2022/06/14 00:16:30;;;;;;;3.88;1.30;;;;;;;27.24;24.81;101364.41;5082836;28;20581;-57
2022/06/14 00:18:57;;;;;;;4.72;1.38;;;;;;;26.80;25.21;101357.50;5088378;28;20063;-57
2022/06/14 00:21:24;;;;;;;2.55;1.65;;;;;;;27.06;24.71;101360.59;5078078;28;20123;-57
2022/06/14 00:23:50;;;;;;;4.70;1.92;;;;;;;27.15;23.90;101357.97;5088274;28;20020;-57
2022/06/14 00:26:16;;;;;;;2.00;1.25;;;;;;;26.88;24.56;101359.56;5081822;28;20027;-57
2022/06/14 00:28:44;;;;;;;3.45;1.33;;;;;;;26.82;24.74;101353.34;5082241;28;20438;-58
2022/06/14 00:31:20;;;;;;;4.68;2.30;;;;;;;26.86;24.47;101356.28;5092208;28;20452;-58
2022/06/14 00:33:47;;;;;;;4.85;1.60;;;;;;;26.96;24.03;101349.81;5092856;28;20350;-58
2022/06/14 00:36:30;;;;;;;2.22;1.58;;;;;;;27.09;24.05;101354.50;5075336;28;20024;-58
2022/06/14 00:39:14;;;;;;;4.35;1.65;;;;;;;26.97;23.83;101351.44;5081799;28;20491;-58
2022/06/14 00:41:47;;;;;;;5.05;1.90;;;;;;;26.64;24.38;101342.41;5084271;28;20044;-58
2022/06/14 00:44:23;;;;;;;4.25;1.55;;;;;;;26.43;24.77;101350.19;5086987;28;20100;-59
2022/06/14 00:47:07;;;;;;;5.55;1.40;;;;;;;26.30;27.65;101338.03;5077122;28;20052;-58
2022/06/14 00:49:47;;;;;;;2.73;1.43;;;;;;;26.17;24.58;101347.84;5083009;28;20135;-58
2022/06/14 00:52:23;;;;;;;3.60;1.70;;;;;;;26.18;26.15;101343.16;5080831;28;20032;-58
2022/06/14 00:54:56;;;;;;;3.28;1.98;;;;;;;25.93;26.46;101336.13;5073503;28;20021;-59
2022/06/14 00:57:27;;;;;;;7.15;3.33;;;;;;;25.98;27.09;101336.88;5072335;28;20338;-57
2022/06/14 01:00:05;;;;;;;6.05;3.30;;;;;;;26.02;25.78;101334.34;5070466;28;20362;-58
2022/06/14 01:02:37;;;;;;;5.43;2.92;;;;;;;25.93;26.96;101327.91;5084005;28;20103;-58
2022/06/14 01:05:10;;;;;;;11.13;6.28;;;;;;;26.01;26.45;101324.50;5072215;28;20103;-62
2022/06/14 01:07:40;;;;;;;8.77;6.03;;;;;;;26.05;26.07;101325.53;5086544;28;20024;-59
2022/06/14 01:10:25;;;;;;;8.10;3.80;;;;;;;26.19;25.96;101336.56;5091991;28;20477;-58
2022/06/14 01:12:56;;;;;;;5.07;3.03;;;;;;;25.81;26.09;101328.34;5089364;28;20082;-58
2022/06/14 01:15:28;;;;;;;4.25;2.13;;;;;;;25.81;26.08;101331.09;5089309;22;20053;-58
2022/06/14 01:18:03;;;;;;;5.20;1.70;;;;;;;26.00;26.79;101329.19;5071885;28;20029;-59
2022/06/14 01:20:29;;;;;;;5.88;2.03;;;;;;;26.04;26.63;101324.75;5071446;28;20024;-58
2022/06/14 01:22:56;;;;;;;5.72;1.70;;;;;;;26.05;25.85;101331.84;5070105;28;20024;-58
2022/06/14 01:25:24;;;;;;;3.10;1.75;;;;;;;26.12;26.54;101327.91;5071334;28;20029;-59
2022/06/14 01:27:53;;;;;;;5.95;1.98;;;;;;;26.02;26.57;101335.16;5072074;28;20016;-59
2022/06/14 01:30:30;;;;;;;4.07;1.90;;;;;;;26.11;26.33;101342.75;5070046;28;20028;-58
2022/06/14 01:33:03;;;;;;;4.93;1.83;;;;;;;26.04;26.95;101326.63;5072105;28;20024;-59
2022/06/14 01:35:35;;;;;;;4.53;1.50;;;;;;;26.05;26.47;101333.78;5051820;28;20058;-59
2022/06/14 01:38:05;;;;;;;8.02;1.70;;;;;;;25.94;26.52;101330.38;5070245;28;20036;-58
2022/06/14 01:40:59;;;;;;;4.00;1.67;;;;;;;26.04;26.83;101338.44;5052282;28;20041;-59
2022/06/14 01:43:53;;;;;;;3.57;2.00;;;;;;;25.98;28.57;101333.31;5074764;28;20024;-58
2022/06/14 01:46:26;;;;;;;6.15;2.03;;;;;;;25.84;27.49;101336.00;5055860;28;20032;-59
2022/06/14 01:52:02;;;;;;;4.97;1.70;;;;;;;26.21;27.15;101331.63;5021798;28;20052;-57
2022/06/14 01:54:46;;;;;;;5.57;2.30;;;;;;;26.38;27.44;101337.34;5075694;28;20028;-57
2022/06/14 01:57:23;;;;;;;5.65;1.88;;;;;;;26.19;26.83;101336.56;5056545;28;20025;-57
2022/06/14 02:00:12;;;;;;;6.50;2.30;;;;;;;26.01;26.88;101341.78;5035132;28;20044;-57
2022/06/14 02:02:45;;;;;;;4.93;1.83;;;;;;;26.29;27.25;101339.97;5017883;28;20029;-57
2022/06/14 02:05:25;;;;;;;5.00;1.88;;;;;;;26.53;26.89;101337.09;5035165;28;20025;-57
2022/06/14 02:07:56;;;;;;;5.10;1.98;;;;;;;26.71;26.74;101337.38;5035807;28;20029;-58
2022/06/14 02:10:37;;;;;;;5.80;1.83;;;;;;;26.65;27.48;101336.66;5054808;28;20067;-58
2022/06/14 02:13:41;;;;;;;6.13;1.98;;;;;;;26.76;26.36;101338.09;5055175;28;20032;-58
2022/06/14 02:16:16;;;;;;;6.68;2.00;;;;;;;26.79;27.34;101339.41;5047625;28;20053;-58
2022/06/14 02:18:59;;;;;;;6.97;1.90;;;;;;;27.05;27.10;101337.00;5034573;28;20099;-57
2022/06/14 02:21:31;;;;;;;7.13;2.05;;;;;;;27.18;26.73;101343.63;5041529;28;20032;-58
2022/06/14 02:24:15;;;;;;;4.18;2.35;;;;;;;27.21;26.94;101343.03;5055046;28;20024;-57
2022/06/14 02:26:54;;;;;;;5.20;2.10;;;;;;;27.24;26.78;101350.66;5054959;28;20021;-58
2022/06/14 02:29:47;;;;;;;7.07;2.53;;;;;;;26.75;28.15;101355.66;5054619;28;20049;-58
2022/06/14 02:32:42;;;;;;;5.45;2.10;;;;;;;26.26;28.06;101354.28;5054829;28;20021;-59
2022/06/14 02:35:17;;;;;;;5.28;2.13;;;;;;;26.19;27.96;101350.28;5054946;28;20025;-58
2022/06/14 02:38:00;;;;;;;6.13;2.35;;;;;;;26.05;28.23;101347.50;5036845;28;20037;-58
2022/06/14 02:40:41;;;;;;;5.40;2.05;;;;;;;26.05;28.83;101345.56;5038620;28;20075;-58
2022/06/14 02:43:18;;;;;;;4.90;2.00;;;;;;;26.21;28.94;101351.63;5052729;28;20021;-58
2022/06/14 02:45:50;;;;;;;9.65;2.00;;;;;;;26.21;29.61;101342.59;5046991;28;20083;-58
2022/06/14 02:48:55;;;;;;;6.50;2.20;;;;;;;26.50;28.39;101340.47;5049380;28;20071;-59
2022/06/14 02:51:53;;;;;;;;;;;;;;;26.17;28.58;101353.34;5055221;28;20028;-58
2022/06/14 02:54:54;;;;;;;4.82;1.95;;;;;;;26.38;28.27;101334.63;5031700;28;19913;-58
2022/06/14 02:57:30;;;;;;;5.35;2.40;;;;;;;26.22;28.46;101335.97;5001663;28;20040;-58
2022/06/14 03:00:05;;;;;;;5.88;2.38;;;;;;;26.18;28.63;101348.66;5041922;28;20097;-58
2022/06/14 03:02:51;;;;;;;7.00;2.00;;;;;;;26.10;28.50;101355.66;5054336;28;20410;-58
2022/06/14 03:05:35;;;;;;;3.53;1.83;;;;;;;26.13;28.48;101351.47;5054251;28;20137;-57
2022/06/14 03:08:21;;;;;;;6.00;2.85;;;;;;;25.80;29.54;101345.94;5054371;28;20086;-58
2022/06/14 03:10:55;;;;;;;6.70;2.40;;;;;;;25.45;30.02;101345.28;5036243;28;20026;-57
2022/06/14 03:14:10;;;;;;;7.15;2.00;;;;;;;25.32;30.49;101348.75;5034073;28;20443;-58
2022/06/14 03:16:50;;;;;;;4.90;2.30;;;;;;;24.72;31.94;101359.22;5051458;28;20045;-58
2022/06/14 03:20:02;;;;;;;4.72;1.98;;;;;;;24.30;33.33;101359.81;5039225;28;20379;-58
2022/06/14 03:22:55;;;;;;;10.55;2.30;;;;;;;23.90;33.47;101354.34;5008169;28;20033;-58
2022/06/14 03:25:26;;;;;;;7.47;2.60;;;;;;;23.80;33.74;101354.38;5037364;28;20027;-58
2022/06/14 03:28:05;;;;;;;6.65;1.92;;;;;;;23.66;33.89;101353.41;5033967;28;20033;-58
2022/06/14 03:30:43;;;;;;;5.53;1.90;;;;;;;23.50;34.21;101358.06;5052779;28;20029;-58
2022/06/14 03:33:31;;;;;;;6.40;2.30;;;;;;;23.36;34.42;101360.56;5041366;28;20060;-58
2022/06/14 03:35:58;;;;;;;6.25;2.55;;;;;;;22.98;35.50;101351.13;5053061;28;20025;-58
2022/06/14 03:38:39;;;;;;;6.57;2.30;;;;;;;22.98;35.35;101355.78;5053193;28;20033;-58
2022/06/14 03:41:08;;;;;;;10.52;3.00;;;;;;;22.79;36.01;101353.59;5035509;28;20044;-57
2022/06/14 03:43:36;;;;;;;7.03;2.47;;;;;;;22.64;36.20;101353.59;5047827;28;20025;-58
2022/06/14 03:46:25;;;;;;;8.30;2.05;;;;;;;22.52;36.90;101358.53;5034398;28;20474;-58
2022/06/14 03:48:58;;;;;;;7.78;2.60;;;;;;;22.34;37.44;101338.91;5045058;28;20033;-58
2022/06/14 03:51:51;;;;;;;8.35;2.60;;;;;;;22.36;37.28;101350.34;5053277;28;20044;-58
2022/06/14 03:54:48;;;;;;;5.30;2.50;;;;;;;22.26;37.91;101349.53;5053076;28;20078;-58
2022/06/14 03:57:24;;;;;;;6.50;2.60;;;;;;;22.27;38.45;101348.44;5048500;28;20417;-58
2022/06/14 04:00:12;;;;;;;7.43;2.38;;;;;;;22.05;38.77;101352.22;5032718;28;20083;-58
2022/06/14 04:02:54;;;;;;;8.52;2.58;;;;;;;22.03;39.57;101359.00;5034522;28;20026;-58
2022/06/14 04:05:29;;;;;;;5.53;2.22;;;;;;;21.69;40.24;101364.91;5049909;28;20381;-58
2022/06/14 04:08:10;;;;;;;7.22;2.30;;;;;;;21.56;40.77;101359.97;5035525;28;20063;-58
2022/06/14 04:10:42;;;;;;;9.50;2.95;;;;;;;21.76;40.11;101357.31;5052648;28;20381;-58
2022/06/14 04:13:29;;;;;;;10.27;2.67;;;;;;;21.56;40.47;101360.78;5052724;28;20025;-58
2022/06/14 04:16:13;;;;;;;6.30;2.80;;;;;;;21.19;42.02;101358.13;5052538;28;20048;-58
2022/06/14 04:18:57;;;;;;;8.43;2.42;;;;;;;21.10;42.01;101365.19;5052455;28;20497;-58
2022/06/14 04:21:24;;;;;;;8.05;2.80;;;;;;;21.12;42.20;101360.28;5052709;28;20068;-58
2022/06/14 04:24:11;;;;;;;6.05;2.70;;;;;;;20.93;42.72;101367.22;5052784;28;20056;-58
2022/06/14 04:26:57;;;;;;;8.48;3.10;;;;;;;20.90;42.93;101367.75;5052636;28;20029;-58
2022/06/14 04:29:38;;;;;;;5.22;2.47;;;;;;;20.95;42.91;101370.53;5032142;28;20104;-58
2022/06/14 04:32:14;;;;;;;7.03;2.75;;;;;;;20.88;42.97;101365.31;5032728;28;20021;-58
2022/06/14 04:34:58;;;;;;;8.88;2.25;;;;;;;20.78;43.57;101374.22;5031038;28;20036;-58
2022/06/14 04:37:36;;;;;;;8.45;2.72;;;;;;;20.79;43.21;101378.56;5032140;28;20032;-58
2022/06/14 04:40:25;;;;;;;8.82;2.60;;;;;;;20.82;43.71;101378.06;5031354;28;20525;-58
2022/06/14 04:43:06;;;;;;;8.98;2.47;;;;;;;20.71;43.94;101380.94;5042245;28;20037;-57
2022/06/14 04:45:41;;;;;;;8.90;2.65;;;;;;;20.58;44.69;101384.13;5052042;28;20021;-58
2022/06/14 04:48:11;;;;;;;4.65;2.28;;;;;;;20.55;44.90;101390.91;5051468;28;20029;-58
2022/06/14 04:50:46;;;;;;;7.88;2.80;;;;;;;20.60;45.18;101390.94;5049549;28;20444;-58
2022/06/14 04:53:53;;;;;;;8.27;2.63;;;;;;;20.42;45.22;101394.81;5030311;28;20029;-58
2022/06/14 04:56:27;;;;;;;8.75;2.35;;;;;;;20.23;45.50;101412.59;5034230;28;20098;-61
2022/06/14 04:59:07;;;;;;;9.10;3.20;;;;;;;20.33;44.72;101406.44;5034001;28;20025;-58
2022/06/14 05:01:42;;;;;;;8.10;2.75;;;;;;;19.89;44.99;101410.06;5033570;28;20033;-58
2022/06/14 05:04:30;;;;;;;7.28;2.45;;;;;;;20.00;44.58;101409.09;5029727;28;20051;-58
2022/06/14 05:07:08;;;;;;;6.13;2.58;;;;;;;20.27;42.98;101400.94;5041736;28;20040;-58
2022/06/14 05:09:44;;;;;;;8.98;2.60;;;;;;;20.08;43.82;101409.69;5038729;28;20029;-58
2022/06/14 05:12:31;;;;;;;9.32;2.95;;;;;;;20.12;44.34;101405.41;5039296;28;20461;-58
2022/06/14 05:14:57;;;;;;;9.73;3.17;;;;;;;20.00;44.63;101402.84;5038478;28;20045;-58
2022/06/14 05:17:56;;;;;;;7.75;2.47;;;;;;;20.23;43.17;101404.44;5029566;28;20049;-58
2022/06/14 05:20:52;;;;;;;6.10;2.72;;;;;;;19.86;43.16;101409.72;5007212;28;20041;-58
2022/06/14 05:23:27;;;;;;;9.93;2.85;;;;;;;19.68;42.94;101406.25;5030768;28;20639;-58
2022/06/14 05:26:23;;;;;;;4.60;2.65;;;;;;;19.56;43.28;101402.84;5031901;28;20060;-58
2022/06/14 05:29:13;;;;;;;8.40;2.58;;;;;;;19.60;43.11;101395.84;4954597;23;2588249;-58
2022/06/14 05:32:00;;;;;;;5.22;2.47;;;;;;;19.52;44.37;101399.78;5050579;28;20076;-58
2022/06/14 05:34:56;;;;;;;9.93;2.42;;;;;;;19.47;44.30;101397.00;5050454;28;20024;-58
2022/06/14 05:37:27;;;;;;;8.48;2.50;;;;;;;19.58;43.91;101406.09;5061048;28;20040;-57
2022/06/14 05:39:59;;;;;;;8.48;2.85;;;;;;;19.34;45.01;101415.56;5065873;28;20021;-58
2022/06/14 05:42:40;;;;;;;8.52;2.78;;;;;;;19.30;45.69;101426.09;5068857;28;20036;-58
2022/06/14 05:45:06;;;;;;;8.77;2.40;;;;;;;19.33;46.17;101430.22;5071231;28;20103;-58
2022/06/14 05:47:41;;;;;;;7.25;2.85;;;;;;;19.31;46.22;101426.91;5070065;28;20027;-58
2022/06/14 05:50:25;;;;;;;6.47;2.70;;;;;;;19.30;46.54;101417.13;5061641;28;20032;-58
2022/06/14 05:53:01;;;;;;;6.95;2.45;;;;;;;19.21;46.67;101420.28;5038970;28;20045;-58
2022/06/14 05:55:40;;;;;;;11.25;2.50;;;;;;;19.21;47.09;101422.16;5033524;28;20056;-58
2022/06/14 05:58:39;;;;;;;8.73;2.42;;;;;;;19.19;47.05;101425.13;5050863;28;20029;-58
2022/06/14 06:01:13;;;;;;;11.07;3.08;;;;;;;19.19;47.26;101429.72;5047393;28;20040;-59
2022/06/14 06:04:03;;;;;;;9.38;2.25;;;;;;;19.19;47.50;101435.97;5050273;28;20382;-57
2022/06/14 06:06:35;;;;;;;11.82;2.85;;;;;;;19.08;47.47;101431.47;5051038;28;20025;-57
2022/06/14 06:09:08;;;;;;;9.85;2.72;;;;;;;19.32;47.23;101428.53;5050512;28;20021;-57
2022/06/14 06:12:05;;;;;;;7.00;2.35;;;;;;;19.24;47.06;101419.75;5050957;28;20494;-57
2022/06/14 06:14:43;;;;;;;8.55;2.42;;;;;;;19.27;47.02;101415.75;5033746;28;20034;-57
2022/06/14 06:17:27;;;;;;;4.82;2.40;;;;;;;19.04;47.69;101408.59;5030892;28;20116;-57
2022/06/14 06:20:19;;;;;;;10.18;2.90;;;;;;;19.09;48.38;101407.88;5030797;28;20033;-57
2022/06/14 06:23:00;;;;;;;8.82;2.75;;;;;;;18.65;49.22;101403.06;5037140;28;20465;-57
2022/06/14 06:25:34;;;;;;;8.52;2.80;;;;;;;18.63;49.69;101412.53;5050578;28;20035;-58
2022/06/14 06:28:04;;;;;;;10.30;2.83;;;;;;;18.56;49.89;101411.88;5043517;28;20057;-59
2022/06/14 06:30:41;;;;;;;8.82;2.35;;;;;;;18.41;50.30;101415.13;5035095;28;20045;-57
2022/06/14 06:33:12;;;;;;;9.45;2.47;;;;;;;18.49;50.47;101420.19;5054608;28;20079;-58
2022/06/14 06:36:04;;;;;;;9.60;2.45;;;;;;;18.63;50.50;101420.69;5052474;28;20028;-57
2022/06/14 06:39:05;;;;;;;7.22;2.72;;;;;;;18.45;51.12;101413.59;5054151;28;20029;-57
2022/06/14 06:41:51;;;;;;;7.30;2.58;;;;;;;18.79;50.41;101405.50;5052560;28;20029;-57
2022/06/14 06:44:23;;;;;;;13.02;2.67;;;;;;;18.62;50.93;101406.28;5053129;28;20025;-57
2022/06/14 06:46:59;;;;;;;9.63;3.42;;;;;;;18.47;51.22;101401.44;5051380;28;20040;-57
2022/06/14 06:49:33;;;;;;;10.77;2.90;;;;;;;18.54;51.06;101400.44;5052604;28;20029;-57
2022/06/14 06:52:03;;;;;;;10.73;2.80;;;;;;;18.46;51.31;101398.97;5052684;28;20059;-57
2022/06/14 06:54:42;;;;;;;10.13;2.92;;;;;;;18.33;51.38;101399.28;5053803;28;20262;-56
2022/06/14 06:57:14;;;;;;;6.75;2.72;;;;;;;18.10;51.74;101403.75;5052402;28;20474;-57
2022/06/14 06:59:46;;;;;;;8.68;2.75;;;;;;;18.15;51.57;101401.13;5035705;28;20472;-57
2022/06/14 07:02:44;;;;;;;6.93;2.20;;;;;;;18.42;49.15;101405.94;5048949;28;20021;-57
2022/06/14 07:05:15;;;;;;;5.93;2.70;;;;;;;18.55;50.18;101402.94;5048195;28;20044;-57
2022/06/14 07:08:10;;;;;;;11.15;3.00;;;;;;;18.37;50.25;101397.72;5053946;28;20025;-57
2022/06/14 07:10:41;;;;;;;3.67;1.85;;;;;;;18.15;50.67;101386.75;5053207;28;20123;-58
2022/06/14 07:13:11;;;;;;;5.70;2.15;;;;;;;17.94;50.93;101396.41;5052611;28;20456;-58
2022/06/14 07:15:41;;;;;;;7.15;2.30;;;;;;;18.02;50.68;101393.28;5038714;28;20383;-58
2022/06/14 07:18:13;;;;;;;7.10;2.20;;;;;;;18.16;49.30;101400.06;5042002;28;20494;-57
2022/06/14 07:20:50;;;;;;;5.20;2.20;;;;;;;18.41;49.35;101404.28;5049579;28;20024;-57
2022/06/14 07:23:42;;;;;;;6.63;2.10;;;;;;;18.13;50.28;101400.56;5052158;28;20045;-58
2022/06/14 07:26:29;;;;;;;5.75;2.15;;;;;;;18.07;50.70;101395.28;5049768;28;20024;-59
2022/06/14 07:29:10;;;;;;;8.70;2.40;;;;;;;18.13;51.37;101399.72;5038240;28;20045;-59
2022/06/14 07:32:09;;;;;;;5.80;2.10;;;;;;;18.09;51.35;101390.44;5045833;28;20041;-59
2022/06/14 07:34:36;;;;;;;9.15;2.85;;;;;;;18.13;50.89;101395.13;5053584;28;20055;-58
2022/06/14 07:37:44;;;;;;;8.70;2.55;;;;;;;18.27;50.04;101389.44;5051062;28;20021;-58
2022/06/14 07:40:28;;;;;;;6.30;2.30;;;;;;;18.25;49.54;101402.38;4979915;28;20046;-59
2022/06/14 07:43:11;;;;;;;4.07;2.40;;;;;;;18.17;50.09;101399.00;5053103;28;20025;-58
2022/06/14 07:45:44;;;;;;;5.70;2.03;;;;;;;18.04;50.27;101404.69;5051449;28;20075;-58
2022/06/14 07:48:31;;;;;;;6.90;2.13;;;;;;;18.03;50.01;101405.78;5052659;28;20021;-59
2022/06/14 07:51:00;;;;;;;6.13;2.03;;;;;;;18.03;50.14;101413.06;5050609;28;20033;-59
2022/06/14 07:53:36;;;;;;;6.55;1.80;;;;;;;17.96;50.36;101412.41;5052706;28;20070;-58
2022/06/14 07:56:11;;;;;;;6.97;2.20;;;;;;;17.97;50.39;101412.16;5051221;28;20075;-59
2022/06/14 07:59:08;;;;;;;6.10;2.17;;;;;;;17.98;50.82;101412.97;5052610;28;20051;-59
2022/06/14 08:01:48;;;;;;;4.85;1.90;;;;;;;18.11;50.20;101407.28;5051629;28;20032;-58
2022/06/14 08:04:22;;;;;;;6.30;1.85;;;;;;;18.12;49.51;101403.50;5052688;28;20021;-58
2022/06/14 08:07:03;;;;;;;8.48;2.50;;;;;;;18.16;48.83;101405.50;5051056;28;20040;-59
2022/06/14 08:09:41;;;;;;;4.97;2.00;;;;;;;17.86;49.27;101399.47;5032627;28;20030;-58
2022/06/14 08:12:34;;;;;;;4.25;1.73;;;;;;;17.78;49.54;101402.56;5048405;28;20029;-58
2022/06/14 08:15:24;;;;;;;5.65;1.95;;;;;;;17.98;48.64;101411.09;5051485;28;20041;-59
2022/06/14 08:18:00;;;;;;;3.67;1.83;;;;;;;17.82;49.41;101409.13;5050480;28;20037;-58
2022/06/14 08:20:35;;;;;;;;;;;;;;;17.85;49.66;101408.66;5052916;28;20029;-59
2022/06/14 08:23:09;;;;;;;2.80;1.50;;;;;;;17.72;50.21;101406.22;5050515;28;19924;-58
2022/06/14 08:25:41;;;;;;;2.60;1.55;;;;;;;17.95;49.69;101403.47;5052588;28;20570;-58
2022/06/14 08:28:16;;;;;;;3.97;1.48;;;;;;;17.55;50.79;101398.84;5050347;28;20032;-59
2022/06/14 08:30:58;;;;;;;4.43;1.90;;;;;;;17.62;50.04;101394.09;5049489;28;20037;-58
2022/06/14 08:33:47;;;;;;;5.78;1.52;;;;;;;17.36;50.60;101386.50;5050932;28;20489;-58
2022/06/14 08:36:20;;;;;;;5.72;1.77;;;;;;;17.48;50.24;101384.59;5050973;28;20029;-58
2022/06/14 08:39:05;;;;;;;5.05;2.22;;;;;;;17.37;50.47;101388.97;5051727;28;20111;-58
2022/06/14 08:41:44;;;;;;;3.75;1.77;;;;;;;17.38;50.87;101387.94;5050832;28;20021;-58
2022/06/14 08:44:21;;;;;;;4.28;1.63;;;;;;;17.33;51.00;101385.09;5048262;28;20034;-59
2022/06/14 08:47:20;;;;;;;3.75;1.45;;;;;;;17.37;51.40;101383.56;5051034;28;20029;-59
2022/06/14 08:49:58;;;;;;;3.67;1.60;;;;;;;17.32;51.80;101388.03;5049873;28;20126;-58
2022/06/14 08:52:52;;;;;;;5.55;1.63;;;;;;;17.24;52.03;101385.69;5049577;28;20028;-59
2022/06/14 08:55:54;;;;;;;5.47;1.73;;;;;;;17.02;52.32;101378.19;5050165;28;20275;-58
2022/06/14 08:58:40;;;;;;;3.75;1.63;;;;;;;17.07;51.80;101383.72;5049508;28;20033;-58
2022/06/14 09:01:09;;;;;;;;;;;;;;;17.12;51.86;101378.41;5032255;28;20481;-58
2022/06/14 09:04:05;;;;;;;3.97;1.70;;;;;;;17.14;51.59;101386.28;5032009;28;19920;-59
2022/06/14 09:06:37;;;;;;;7.05;1.60;;;;;;;17.17;51.61;101383.13;5043054;28;20036;-58
2022/06/14 09:09:22;;;;;;;4.63;1.60;;;;;;;17.13;51.71;101379.25;5048759;28;20079;-58
2022/06/14 09:12:42;;;;;;;5.18;1.85;;;;;;;17.18;51.60;101381.25;5051916;28;20029;-59
2022/06/14 09:15:34;;;;;;;4.57;1.65;;;;;;;17.14;52.06;101373.59;4977330;28;20043;-58
2022/06/14 09:18:14;;;;;;;6.50;2.13;;;;;;;17.03;52.45;101373.59;5031437;28;20030;-59
2022/06/14 09:20:43;;;;;;;7.57;1.70;;;;;;;16.99;52.72;101369.72;5051265;28;20461;-58
2022/06/14 09:23:38;;;;;;;5.57;1.42;;;;;;;17.08;51.96;101371.00;5050182;28;20025;-58
2022/06/14 09:26:32;;;;;;;7.15;2.17;;;;;;;16.94;52.13;101370.44;5010771;28;20128;-58
2022/06/14 09:29:15;;;;;;;5.75;1.65;;;;;;;16.98;52.74;101368.06;5050158;28;20060;-59
2022/06/14 09:32:32;;;;;;;9.00;2.10;;;;;;;16.94;52.65;101369.63;5049432;28;20060;-58
2022/06/14 09:35:40;;;;;;;4.82;1.88;;;;;;;16.85;52.32;101363.72;5049986;28;20029;-58
2022/06/14 09:38:30;;;;;;;10.60;2.10;;;;;;;16.81;52.84;101370.66;5049574;28;20032;-59
2022/06/14 09:41:14;;;;;;;7.68;2.08;;;;;;;16.72;52.93;101363.97;5043773;28;20500;-59
2022/06/14 09:44:01;;;;;;;7.28;1.67;;;;;;;16.67;53.31;101369.22;5050245;28;20063;-59
2022/06/14 09:46:36;;;;;;;7.43;1.85;;;;;;;16.61;53.40;101371.78;5051511;28;20409;-58
2022/06/14 09:49:15;;;;;;;;;;;;;;;16.51;53.53;101366.13;5049210;28;20540;-58
2022/06/14 09:52:16;;;;;;;2.90;2.00;;;;;;;16.40;53.93;101369.63;5039876;28;19920;-58
2022/06/14 09:55:01;;;;;;;5.38;2.05;;;;;;;16.26;54.26;101382.50;5015350;28;20045;-58
2022/06/14 09:57:49;;;;;;;4.57;2.05;;;;;;;16.19;54.67;101375.56;5048728;28;20033;-58
2022/06/14 10:00:29;;;;;;;5.55;1.83;;;;;;;16.14;54.37;101364.63;5048434;28;20044;-58
2022/06/14 10:03:08;;;;;;;4.10;1.67;;;;;;;16.10;54.40;101369.66;5037546;28;20037;-58
2022/06/14 10:05:55;;;;;;;4.75;1.92;;;;;;;16.11;54.24;101371.31;5050779;28;20107;-59
2022/06/14 10:08:52;;;;;;;4.35;1.40;;;;;;;16.04;54.30;101370.56;5054679;28;20053;-58
2022/06/14 10:11:44;;;;;;;3.50;1.95;;;;;;;16.01;54.42;101371.88;5053597;28;20021;-58
2022/06/14 10:14:25;;;;;;;3.03;1.23;;;;;;;15.92;54.48;101375.94;5054967;28;20025;-58
2022/06/14 10:17:09;;;;;;;4.43;1.58;;;;;;;15.79;54.94;101370.72;5053459;28;20485;-58
2022/06/14 10:19:57;;;;;;;3.70;1.80;;;;;;;15.82;55.17;101376.50;5054421;28;20052;-58
2022/06/14 10:23:11;;;;;;;2.80;1.45;;;;;;;15.79;55.26;101376.94;5054803;28;20062;-58
2022/06/14 10:28:57;;;;;;;6.65;1.70;;;;;;;15.62;55.18;101381.28;5031248;28;20095;-58
2022/06/14 10:31:43;;;;;;;3.20;1.92;;;;;;;15.58;55.50;101378.19;5054814;28;20037;-58
2022/06/14 10:34:23;;;;;;;7.47;2.10;;;;;;;15.64;55.37;101381.06;5011521;28;20509;-59
2022/06/14 10:37:14;;;;;;;7.75;2.33;;;;;;;15.55;55.51;101385.94;5051134;28;20060;-59
2022/06/14 10:40:00;;;;;;;5.97;1.95;;;;;;;15.56;55.67;101380.31;5052078;28;20048;-59
2022/06/14 10:42:55;;;;;;;9.40;1.92;;;;;;;15.55;55.92;101377.84;5054237;28;20032;-58
2022/06/14 10:45:43;;;;;;;3.70;1.98;;;;;;;15.49;56.02;101387.66;5043527;28;20041;-59
2022/06/14 10:48:34;;;;;;;6.28;2.08;;;;;;;15.42;56.19;101384.19;5051158;28;20029;-58
2022/06/14 10:51:18;;;;;;;3.30;1.60;;;;;;;15.46;56.10;101381.88;5053645;28;20033;-58
2022/06/14 10:54:12;;;;;;;6.75;2.30;;;;;;;15.47;56.46;101381.63;5053499;28;20090;-58
2022/06/14 10:57:07;;;;;;;5.97;2.30;;;;;;;15.35;56.45;101377.22;5051603;28;20032;-58
2022/06/14 11:00:00;;;;;;;3.42;1.98;;;;;;;15.26;56.20;101380.22;5033883;28;20026;-58
2022/06/14 11:02:36;;;;;;;4.72;1.70;;;;;;;15.26;56.28;101382.09;5043139;28;20030;-58
2022/06/14 11:05:18;;;;;;;4.65;2.03;;;;;;;15.29;56.39;101384.34;5053363;28;20060;-58
2022/06/14 11:07:50;;;;;;;4.40;1.90;;;;;;;15.23;56.39;101386.06;5053663;28;20033;-58
2022/06/14 11:10:25;;;;;;;5.70;2.10;;;;;;;15.20;56.07;101386.50;5053754;28;20456;-58
2022/06/14 11:13:29;;;;;;;5.47;1.90;;;;;;;15.32;56.15;101376.63;5053111;28;20021;-58
2022/06/14 11:16:32;;;;;;;5.00;1.88;;;;;;;15.21;56.54;101381.91;5033562;28;20029;-58
2022/06/14 11:19:31;;;;;;;5.45;1.70;;;;;;;15.14;56.16;101378.47;5044152;28;20048;-58
2022/06/14 11:22:09;;;;;;;6.07;2.03;;;;;;;15.08;56.44;101376.69;5053478;28;20060;-58
2022/06/14 11:24:56;;;;;;;3.97;1.83;;;;;;;15.04;56.73;101371.72;5053690;28;20524;-58
2022/06/14 11:27:26;;;;;;;4.57;1.45;;;;;;;15.03;56.84;101375.47;5053279;28;20029;-58
2022/06/14 11:30:02;;;;;;;5.15;1.83;;;;;;;15.05;57.00;101384.19;5052446;28;20541;-58
2022/06/14 11:32:42;;;;;;;5.18;1.90;;;;;;;14.94;57.10;101378.69;5053479;28;20098;-58
2022/06/14 11:35:40;;;;;;;5.22;2.63;;;;;;;14.88;57.67;101382.25;5052931;28;20033;-58
2022/06/14 11:38:48;;;;;;;3.90;1.83;;;;;;;14.75;58.13;101384.00;5053236;28;20115;-58
2022/06/14 11:41:18;;;;;;;3.45;1.80;;;;;;;14.75;58.13;101385.88;4990813;28;20064;-58
2022/06/14 11:43:57;;;;;;;9.15;1.83;;;;;;;14.80;57.78;101383.34;4991751;28;20048;-58
2022/06/14 11:46:41;;;;;;;5.03;2.25;;;;;;;14.70;58.17;101386.53;5016467;28;20045;-58
2022/06/14 11:49:14;;;;;;;3.25;1.83;;;;;;;14.81;57.86;101384.19;5052758;28;20090;-58
2022/06/14 11:51:52;;;;;;;4.03;1.60;;;;;;;14.77;58.07;101389.22;5053048;28;20165;-58
2022/06/14 11:54:25;;;;;;;5.20;1.95;;;;;;;14.81;57.83;101393.09;5053135;28;20056;-58
2022/06/14 11:57:16;;;;;;;5.35;1.98;;;;;;;14.84;58.18;101395.34;5052897;28;20036;-58
2022/06/14 11:59:42;;;;;;;5.22;1.98;;;;;;;14.77;58.36;101397.28;5052668;28;20017;-58
2022/06/14 12:02:56;;;;;;;5.88;1.88;;;;;;;14.75;58.62;101404.75;5052404;28;20032;-58
2022/06/14 12:05:42;;;;;;;5.72;1.85;;;;;;;14.79;58.96;101398.72;5009953;28;20034;-58
2022/06/14 12:08:44;;;;;;;6.95;2.20;;;;;;;14.76;58.82;101390.22;5032536;28;20032;-58
2022/06/14 12:11:40;;;;;;;5.07;2.08;;;;;;;14.76;59.07;101401.81;5015729;28;20041;-58
2022/06/14 12:14:39;;;;;;;4.90;1.65;;;;;;;14.75;58.93;101396.66;5032422;28;20034;-58
2022/06/14 12:17:19;;;;;;;5.03;1.95;;;;;;;14.87;58.47;101402.97;5032911;28;20037;-58
2022/06/14 12:19:49;;;;;;;5.35;2.17;;;;;;;14.79;59.12;101405.97;5032842;28;20099;-58
2022/06/14 12:22:26;;;;;;;3.40;2.03;;;;;;;14.71;59.23;101408.91;5045479;28;20040;-58
2022/06/14 12:28:17;;;;;;;3.85;1.90;;;;;;;14.64;59.29;101408.97;5052096;28;20124;-58
2022/06/14 12:30:46;;;;;;;11.45;2.10;;;;;;;14.58;59.52;101404.47;5052208;28;20371;-58
2022/06/14 12:33:18;;;;;;;4.88;1.60;;;;;;;14.56;59.83;101403.88;5049667;28;20370;-58
2022/06/14 12:36:19;;;;;;;5.75;2.20;;;;;;;14.53;59.79;101407.00;5049518;28;20393;-58
2022/06/14 12:38:49;;;;;;;3.85;1.73;;;;;;;14.46;59.88;101412.41;5051814;28;20027;-58
2022/06/14 12:41:31;;;;;;;4.40;1.83;;;;;;;14.49;59.79;101416.53;5051570;28;20029;-58
2022/06/14 12:44:24;;;;;;;5.03;2.35;;;;;;;14.52;59.94;101408.88;5052056;28;20032;-58